Back to Top

Language: 

My Weather Underground Personal Weather Station Historical Data with Graphs...

Delerius Weather Station Historical Data
Daily Summary for January 1, 2017 Units:  Both    English   Metric
« Previous Day
Next Day »
Daily Weekly Monthly Yearly Custom
  High: Low: Average:
Temperature: 48.1 °F /  8.9 °C 35.1 °F /  1.7 °C 40.1 °F /  4.5 °C
Dew Point: 43.3 °F /  6.3 °C 32.8 °F /  0.4 °C 37.7 °F /  3.2 °C
Humidity: 95 % 80 % 91 %
Wind Speed: 9.0 mph /  14.5 km/h - 5.2 mph /  8.4 km/h
Wind Gust: 22.0 mph /  35.4 km/h - -
Wind:- - West
Pressure: 30.33 in /  1027 hPa 29.95 in /  1014.1 hPa -
Precipitation: 0.21 in /  5.33 mm    
Historical Graphs
 
 
Tabular Data for January 1, 2017
Time Temperature Dew Point Pressure Wind Wind Speed Wind Gust Humidity Rainfall Rate (Hourly) solar Conditions
00:00 48.1 °F /  8.9 °C 42.2 °F /  5.7 °C 30.05 in /  1017.5 hPa SSW 7.0 mph /  11.3 km/h 22.0 mph /  35.4 km/h 80 % 0.00 in /  0 mm 0 W/m2
00:05 48.1 °F /  8.9 °C 42.5 °F /  5.8 °C 30.05 in /  1017.5 hPa SW 7.0 mph /  11.3 km/h 22.0 mph /  35.4 km/h 81 % 0.00 in /  0 mm 0 W/m2
00:15 48.0 °F /  8.9 °C 42.4 °F /  5.8 °C 30.05 in /  1017.5 hPa SW 7.0 mph /  11.3 km/h 7.0 mph /  11.3 km/h 81 % 0.00 in /  0 mm 0 W/m2
00:20 48.1 °F /  8.9 °C 42.9 °F /  6.1 °C 30.04 in /  1017.2 hPa SW 8.0 mph /  12.9 km/h 8.0 mph /  12.9 km/h 82 % 0.00 in /  0 mm 0 W/m2
00:25 48.1 °F /  8.9 °C 42.9 °F /  6.1 °C 30.04 in /  1017.2 hPa SW 7.0 mph /  11.3 km/h 8.0 mph /  12.9 km/h 82 % 0.00 in /  0 mm 0 W/m2
00:30 48.0 °F /  8.9 °C 42.8 °F /  6 °C 30.04 in /  1017.2 hPa SW 6.0 mph /  9.7 km/h 6.0 mph /  9.7 km/h 82 % 0.00 in /  0 mm 0 W/m2
00:35 47.9 °F /  8.8 °C 42.7 °F /  5.9 °C 30.04 in /  1017.2 hPa WSW 7.0 mph /  11.3 km/h 7.0 mph /  11.3 km/h 82 % 0.00 in /  0 mm 0 W/m2
00:45 47.9 °F /  8.8 °C 43.0 °F /  6.1 °C 30.03 in /  1016.8 hPa WSW 7.0 mph /  11.3 km/h 7.0 mph /  11.3 km/h 83 % 0.00 in /  0 mm 0 W/m2
00:50 47.8 °F /  8.8 °C 42.9 °F /  6.1 °C 30.03 in /  1016.8 hPa WSW 6.0 mph /  9.7 km/h 6.0 mph /  9.7 km/h 83 % 0.00 in /  0 mm 0 W/m2
00:55 47.7 °F /  8.7 °C 43.1 °F /  6.2 °C 30.02 in /  1016.5 hPa WSW 4.0 mph /  6.4 km/h 7.0 mph /  11.3 km/h 84 % 0.00 in /  0 mm 0 W/m2
01:00 47.7 °F /  8.7 °C 43.1 °F /  6.2 °C 30.02 in /  1016.5 hPa SW 5.0 mph /  8 km/h 6.0 mph /  9.7 km/h 84 % 0.00 in /  0 mm 0 W/m2
01:05 47.6 °F /  8.7 °C 43.0 °F /  6.1 °C 30.02 in /  1016.5 hPa WSW 6.0 mph /  9.7 km/h 7.0 mph /  11.3 km/h 84 % 0.00 in /  0 mm 0 W/m2
01:15 47.7 °F /  8.7 °C 43.1 °F /  6.2 °C 30.01 in /  1016.1 hPa West 8.0 mph /  12.9 km/h 12.0 mph /  19.3 km/h 84 % 0.00 in /  0 mm 0 W/m2
01:20 47.8 °F /  8.8 °C 43.2 °F /  6.2 °C 30.01 in /  1016.1 hPa West 9.0 mph /  14.5 km/h 9.0 mph /  14.5 km/h 84 % 0.00 in /  0 mm 0 W/m2
01:25 47.8 °F /  8.8 °C 43.2 °F /  6.2 °C 30.01 in /  1016.1 hPa WSW 9.0 mph /  14.5 km/h 12.0 mph /  19.3 km/h 84 % 0.00 in /  0 mm 0 W/m2
01:30 47.8 °F /  8.8 °C 43.2 °F /  6.2 °C 30.00 in /  1015.8 hPa WSW 8.0 mph /  12.9 km/h 8.0 mph /  12.9 km/h 84 % 0.00 in /  0 mm 0 W/m2
01:35 47.7 °F /  8.7 °C 43.1 °F /  6.2 °C 30.00 in /  1015.8 hPa WSW 6.0 mph /  9.7 km/h 12.0 mph /  19.3 km/h 84 % 0.00 in /  0 mm 0 W/m2
01:40 47.6 °F /  8.7 °C 43.0 °F /  6.1 °C 30.00 in /  1015.8 hPa SW 7.0 mph /  11.3 km/h 7.0 mph /  11.3 km/h 84 % 0.00 in /  0 mm 0 W/m2
01:50 47.4 °F /  8.6 °C 42.8 °F /  6 °C 30.00 in /  1015.8 hPa WSW 6.0 mph /  9.7 km/h 12.0 mph /  19.3 km/h 84 % 0.00 in /  0 mm 0 W/m2
01:55 47.3 °F /  8.5 °C 43.0 °F /  6.1 °C 30.00 in /  1015.8 hPa West 6.0 mph /  9.7 km/h 12.0 mph /  19.3 km/h 85 % 0.00 in /  0 mm 0 W/m2
02:00 47.2 °F /  8.4 °C 42.9 °F /  6.1 °C 29.99 in /  1015.5 hPa WSW 6.0 mph /  9.7 km/h 6.0 mph /  9.7 km/h 85 % 0.00 in /  0 mm 0 W/m2
02:05 47.1 °F /  8.4 °C 42.8 °F /  6 °C 29.99 in /  1015.5 hPa WSW 5.0 mph /  8 km/h 12.0 mph /  19.3 km/h 85 % 0.00 in /  0 mm 0 W/m2
02:10 47.0 °F /  8.3 °C 43.0 °F /  6.1 °C 29.99 in /  1015.5 hPa WSW 6.0 mph /  9.7 km/h 6.0 mph /  9.7 km/h 86 % 0.00 in /  0 mm 0 W/m2
02:15 47.0 °F /  8.3 °C 43.0 °F /  6.1 °C 29.99 in /  1015.5 hPa SW 6.0 mph /  9.7 km/h 12.0 mph /  19.3 km/h 86 % 0.00 in /  0 mm 0 W/m2
02:25 46.8 °F /  8.2 °C 43.1 °F /  6.2 °C 29.98 in /  1015.1 hPa WSW 6.0 mph /  9.7 km/h 12.0 mph /  19.3 km/h 87 % 0.00 in /  0 mm 0 W/m2
02:30 46.7 °F /  8.2 °C 43.3 °F /  6.3 °C 29.98 in /  1015.1 hPa WSW 4.0 mph /  6.4 km/h 12.0 mph /  19.3 km/h 88 % 0.00 in /  0 mm 0 W/m2
02:35 46.6 °F /  8.1 °C 43.2 °F /  6.2 °C 29.98 in /  1015.1 hPa WSW 3.0 mph /  4.8 km/h 12.0 mph /  19.3 km/h 88 % 0.00 in /  0 mm 0 W/m2
02:40 46.5 °F /  8.1 °C 43.1 °F /  6.2 °C 29.98 in /  1015.1 hPa WSW 5.0 mph /  8 km/h 5.0 mph /  8 km/h 88 % 0.00 in /  0 mm 0 W/m2
02:45 46.4 °F /  8 °C 43.3 °F /  6.3 °C 29.98 in /  1015.1 hPa WSW 5.0 mph /  8 km/h 12.0 mph /  19.3 km/h 89 % 0.00 in /  0 mm 0 W/m2
02:50 46.3 °F /  7.9 °C 43.2 °F /  6.2 °C 29.98 in /  1015.1 hPa SW 4.0 mph /  6.4 km/h 12.0 mph /  19.3 km/h 89 % 0.00 in /  0 mm 0 W/m2
03:00 46.1 °F /  7.8 °C 43.0 °F /  6.1 °C 29.97 in /  1014.8 hPa WSW 5.0 mph /  8 km/h 5.0 mph /  8 km/h 89 % 0.00 in /  0 mm 0 W/m2
03:05 46.1 °F /  7.8 °C 43.3 °F /  6.3 °C 29.97 in /  1014.8 hPa WSW 4.0 mph /  6.4 km/h 12.0 mph /  19.3 km/h 90 % 0.00 in /  0 mm 0 W/m2
03:15 45.9 °F /  7.7 °C 43.1 °F /  6.2 °C 29.97 in /  1014.8 hPa SW 4.0 mph /  6.4 km/h 12.0 mph /  19.3 km/h 90 % 0.00 in /  0 mm 0 W/m2
03:20 45.9 °F /  7.7 °C 43.1 °F /  6.2 °C 29.97 in /  1014.8 hPa SW 2.0 mph /  3.2 km/h 2.0 mph /  3.2 km/h 90 % 0.00 in /  0 mm 0 W/m2
03:25 45.8 °F /  7.7 °C 43.0 °F /  6.1 °C 29.96 in /  1014.4 hPa SW 1.0 mph /  1.6 km/h 12.0 mph /  19.3 km/h 90 % 0.00 in /  0 mm 0 W/m2
03:30 45.7 °F /  7.6 °C 43.2 °F /  6.2 °C 29.96 in /  1014.4 hPa SW 1.0 mph /  1.6 km/h 1.0 mph /  1.6 km/h 91 % 0.00 in /  0 mm 0 W/m2
03:35 45.6 °F /  7.6 °C 43.1 °F /  6.2 °C 29.96 in /  1014.4 hPa Calm   12.0 mph /  19.3 km/h 91 % 0.00 in /  0 mm 0 W/m2
03:45 45.5 °F /  7.5 °C 43.0 °F /  6.1 °C 29.95 in /  1014.1 hPa Calm   12.0 mph /  19.3 km/h 91 % 0.00 in /  0 mm 0 W/m2
03:50 45.4 °F /  7.4 °C 43.2 °F /  6.2 °C 29.95 in /  1014.1 hPa SW 1.0 mph /  1.6 km/h 12.0 mph /  19.3 km/h 92 % 0.00 in /  0 mm 0 W/m2
03:55 45.4 °F /  7.4 °C 43.2 °F /  6.2 °C 29.95 in /  1014.1 hPa SW 1.0 mph /  1.6 km/h 12.0 mph /  19.3 km/h 92 % 0.00 in /  0 mm 0 W/m2
04:00 45.3 °F /  7.4 °C 43.1 °F /  6.2 °C 29.95 in /  1014.1 hPa SSW 1.0 mph /  1.6 km/h 12.0 mph /  19.3 km/h 92 % 0.00 in /  0 mm 0 W/m2
04:05 45.3 °F /  7.4 °C 43.1 °F /  6.2 °C 29.95 in /  1014.1 hPa SSW 2.0 mph /  3.2 km/h 12.0 mph /  19.3 km/h 92 % 0.00 in /  0 mm 0 W/m2
04:10 45.3 °F /  7.4 °C 43.1 °F /  6.2 °C 29.95 in /  1014.1 hPa SSW 1.0 mph /  1.6 km/h 1.0 mph /  1.6 km/h 92 % 0.00 in /  0 mm 0 W/m2
04:15 45.2 °F /  7.3 °C 43.0 °F /  6.1 °C 29.95 in /  1014.1 hPa Calm   12.0 mph /  19.3 km/h 92 % 0.00 in /  0 mm 0 W/m2
04:20 45.2 °F /  7.3 °C 43.0 °F /  6.1 °C 29.95 in /  1014.1 hPa Calm   12.0 mph /  19.3 km/h 92 % 0.00 in /  0 mm 0 W/m2
04:30 45.2 °F /  7.3 °C 43.3 °F /  6.3 °C 29.95 in /  1014.1 hPa North 2.0 mph /  3.2 km/h 12.0 mph /  19.3 km/h 93 % 0.00 in /  0 mm 0 W/m2
04:35 44.8 °F /  7.1 °C 42.6 °F /  5.9 °C 29.96 in /  1014.4 hPa NNE 6.0 mph /  9.7 km/h 12.0 mph /  19.3 km/h 92 % 0.05 in /  1.27 mm 0 W/m2
04:40 44.1 °F /  6.7 °C 41.9 °F /  5.5 °C 29.96 in /  1014.4 hPa NNE 7.0 mph /  11.3 km/h 12.0 mph /  19.3 km/h 92 % 0.13 in /  3.3 mm 0 W/m2
04:45 43.6 °F /  6.4 °C 41.4 °F /  5.2 °C 29.96 in /  1014.4 hPa North 8.0 mph /  12.9 km/h 12.0 mph /  19.3 km/h 92 % 0.18 in /  4.57 mm 0 W/m2
04:50 43.3 °F /  6.3 °C 41.4 °F /  5.2 °C 29.96 in /  1014.4 hPa North 7.0 mph /  11.3 km/h 7.0 mph /  11.3 km/h 93 % 0.18 in /  4.57 mm 0 W/m2
04:55 43.2 °F /  6.2 °C 41.3 °F /  5.2 °C 29.96 in /  1014.4 hPa North 6.0 mph /  9.7 km/h 11.0 mph /  17.7 km/h 93 % 0.10 in /  2.54 mm 0 W/m2
05:05 42.8 °F /  6 °C 41.2 °F /  5.1 °C 29.96 in /  1014.4 hPa NNE 6.0 mph /  9.7 km/h 12.0 mph /  19.3 km/h 94 % 0.11 in /  2.79 mm 0 W/m2
05:10 42.7 °F /  5.9 °C 41.1 °F /  5.1 °C 29.97 in /  1014.8 hPa NE 6.0 mph /  9.7 km/h 12.0 mph /  19.3 km/h 94 % 0.11 in /  2.79 mm 0 W/m2
05:15 42.7 °F /  5.9 °C 41.1 °F /  5.1 °C 29.97 in /  1014.8 hPa NNW 7.0 mph /  11.3 km/h 12.0 mph /  19.3 km/h 94 % 0.10 in /  2.54 mm 0 W/m2
05:20 42.7 °F /  5.9 °C 41.4 °F /  5.2 °C 29.97 in /  1014.8 hPa North 6.0 mph /  9.7 km/h 6.0 mph /  9.7 km/h 95 % 0.06 in /  1.52 mm 0 W/m2
05:25 42.6 °F /  5.9 °C 41.3 °F /  5.2 °C 29.97 in /  1014.8 hPa North 5.0 mph /  8 km/h 12.0 mph /  19.3 km/h 95 % 0.06 in /  1.52 mm 0 W/m2
05:30 42.6 °F /  5.9 °C 41.3 °F /  5.2 °C 29.97 in /  1014.8 hPa North 6.0 mph /  9.7 km/h 12.0 mph /  19.3 km/h 95 % 0.05 in /  1.27 mm 0 W/m2
05:40 42.5 °F /  5.8 °C 41.2 °F /  5.1 °C 29.97 in /  1014.8 hPa North 5.0 mph /  8 km/h 5.0 mph /  8 km/h 95 % 0.04 in /  1.02 mm 0 W/m2
05:45 42.3 °F /  5.7 °C 41.0 °F /  5 °C 29.98 in /  1015.1 hPa NNW 6.0 mph /  9.7 km/h 10.0 mph /  16.1 km/h 95 % 0.04 in /  1.02 mm 0 W/m2
05:50 42.2 °F /  5.7 °C 40.9 °F /  4.9 °C 29.98 in /  1015.1 hPa NNW 7.0 mph /  11.3 km/h 7.0 mph /  11.3 km/h 95 % 0.04 in /  1.02 mm 0 W/m2
05:55 42.1 °F /  5.6 °C 40.8 °F /  4.9 °C 29.98 in /  1015.1 hPa NNW 7.0 mph /  11.3 km/h 12.0 mph /  19.3 km/h 95 % 0.04 in /  1.02 mm 0 W/m2
06:00 42.0 °F /  5.6 °C 40.7 °F /  4.8 °C 29.98 in /  1015.1 hPa NNW 6.0 mph /  9.7 km/h 6.0 mph /  9.7 km/h 95 % 0.04 in /  1.02 mm 0 W/m2
06:10 41.9 °F /  5.5 °C 40.6 °F /  4.8 °C 29.98 in /  1015.1 hPa NNW 6.0 mph /  9.7 km/h 6.0 mph /  9.7 km/h 95 % 0.04 in /  1.02 mm 0 W/m2
06:20 41.8 °F /  5.4 °C 40.5 °F /  4.7 °C 29.98 in /  1015.1 hPa North 8.0 mph /  12.9 km/h 16.0 mph /  25.7 km/h 95 % 0.04 in /  1.02 mm 0 W/m2
06:25 41.7 °F /  5.4 °C 40.4 °F /  4.7 °C 29.99 in /  1015.5 hPa NNW 9.0 mph /  14.5 km/h 16.0 mph /  25.7 km/h 95 % 0.00 in /  0 mm 0 W/m2
06:30 41.6 °F /  5.3 °C 40.3 °F /  4.6 °C 29.99 in /  1015.5 hPa North 8.0 mph /  12.9 km/h 8.0 mph /  12.9 km/h 95 % 0.00 in /  0 mm 0 W/m2
06:35 41.5 °F /  5.3 °C 40.2 °F /  4.6 °C 29.99 in /  1015.5 hPa North 7.0 mph /  11.3 km/h 12.0 mph /  19.3 km/h 95 % 0.00 in /  0 mm 0 W/m2
06:40 41.4 °F /  5.2 °C 39.8 °F /  4.3 °C 29.99 in /  1015.5 hPa NW 6.0 mph /  9.7 km/h 6.0 mph /  9.7 km/h 94 % 0.00 in /  0 mm 0 W/m2
06:45 41.2 °F /  5.1 °C 39.6 °F /  4.2 °C 29.99 in /  1015.5 hPa North 7.0 mph /  11.3 km/h 7.0 mph /  11.3 km/h 94 % 0.00 in /  0 mm 0 W/m2
06:55 40.8 °F /  4.9 °C 39.2 °F /  4 °C 30.00 in /  1015.8 hPa NE 8.0 mph /  12.9 km/h 11.0 mph /  17.7 km/h 94 % 0.00 in /  0 mm 0 W/m2
07:00 40.7 °F /  4.8 °C 39.1 °F /  3.9 °C 30.00 in /  1015.8 hPa North 7.0 mph /  11.3 km/h 15.0 mph /  24.1 km/h 94 % 0.00 in /  0 mm 0 W/m2
07:05 40.5 °F /  4.7 °C 38.9 °F /  3.8 °C 30.00 in /  1015.8 hPa NNW 7.0 mph /  11.3 km/h 15.0 mph /  24.1 km/h 94 % 0.00 in /  0 mm 0 W/m2
07:10 40.4 °F /  4.7 °C 38.8 °F /  3.8 °C 30.00 in /  1015.8 hPa NNW 6.0 mph /  9.7 km/h 12.0 mph /  19.3 km/h 94 % 0.00 in /  0 mm 0 W/m2
07:15 40.4 °F /  4.7 °C 39.1 °F /  3.9 °C 30.00 in /  1015.8 hPa North 5.0 mph /  8 km/h 12.0 mph /  19.3 km/h 95 % 0.00 in /  0 mm 0 W/m2
07:20 40.2 °F /  4.6 °C 38.9 °F /  3.8 °C 30.01 in /  1016.1 hPa North 6.0 mph /  9.7 km/h 12.0 mph /  19.3 km/h 95 % 0.00 in /  0 mm 0 W/m2
07:30 40.1 °F /  4.5 °C 38.5 °F /  3.6 °C 30.01 in /  1016.1 hPa North 6.0 mph /  9.7 km/h 12.0 mph /  19.3 km/h 94 % 0.00 in /  0 mm 0 W/m2
07:35 40.0 °F /  4.4 °C 38.4 °F /  3.6 °C 30.01 in /  1016.1 hPa NNW 5.0 mph /  8 km/h 12.0 mph /  19.3 km/h 94 % 0.00 in /  0 mm 0 W/m2
07:40 39.9 °F /  4.4 °C 38.3 °F /  3.5 °C 30.01 in /  1016.1 hPa North 5.0 mph /  8 km/h 5.0 mph /  8 km/h 94 % 0.00 in /  0 mm 0 W/m2
07:50 39.9 °F /  4.4 °C 38.6 °F /  3.7 °C 30.02 in /  1016.5 hPa North 5.0 mph /  8 km/h 12.0 mph /  19.3 km/h 95 % 0.00 in /  0 mm 0 W/m2
07:55 39.9 °F /  4.4 °C 38.6 °F /  3.7 °C 30.02 in /  1016.5 hPa North 4.0 mph /  6.4 km/h 12.0 mph /  19.3 km/h 95 % 0.00 in /  0 mm 0 W/m2
08:00 39.9 °F /  4.4 °C 38.6 °F /  3.7 °C 30.02 in /  1016.5 hPa NNW 4.0 mph /  6.4 km/h 12.0 mph /  19.3 km/h 95 % 0.00 in /  0 mm 0 W/m2
08:05 39.8 °F /  4.3 °C 38.5 °F /  3.6 °C 30.02 in /  1016.5 hPa NNW 5.0 mph /  8 km/h 12.0 mph /  19.3 km/h 95 % 0.00 in /  0 mm 0 W/m2
08:10 39.8 °F /  4.3 °C 38.5 °F /  3.6 °C 30.02 in /  1016.5 hPa NNE 6.0 mph /  9.7 km/h 12.0 mph /  19.3 km/h 95 % 0.00 in /  0 mm 0 W/m2
08:15 39.7 °F /  4.3 °C 38.4 °F /  3.6 °C 30.02 in /  1016.5 hPa NW 4.0 mph /  6.4 km/h 12.0 mph /  19.3 km/h 95 % 0.00 in /  0 mm 0 W/m2
08:20 39.7 °F /  4.3 °C 38.4 °F /  3.6 °C 30.02 in /  1016.5 hPa North 4.0 mph /  6.4 km/h 12.0 mph /  19.3 km/h 95 % 0.00 in /  0 mm 0 W/m2
08:25 39.7 °F /  4.3 °C 38.4 °F /  3.6 °C 30.02 in /  1016.5 hPa North 5.0 mph /  8 km/h 12.0 mph /  19.3 km/h 95 % 0.00 in /  0 mm 0 W/m2
08:35 39.6 °F /  4.2 °C 38.3 °F /  3.5 °C 30.02 in /  1016.5 hPa NE 4.0 mph /  6.4 km/h 12.0 mph /  19.3 km/h 95 % 0.00 in /  0 mm 0 W/m2
08:40 39.6 °F /  4.2 °C 38.3 °F /  3.5 °C 30.02 in /  1016.5 hPa NNW 3.0 mph /  4.8 km/h 12.0 mph /  19.3 km/h 95 % 0.00 in /  0 mm 0 W/m2
08:45 39.6 °F /  4.2 °C 38.3 °F /  3.5 °C 30.03 in /  1016.8 hPa NNW 4.0 mph /  6.4 km/h 12.0 mph /  19.3 km/h 95 % 0.00 in /  0 mm 0 W/m2
08:50 39.6 °F /  4.2 °C 38.3 °F /  3.5 °C 30.03 in /  1016.8 hPa North 4.0 mph /  6.4 km/h 4.0 mph /  6.4 km/h 95 % 0.00 in /  0 mm 7 W/m2
08:55 39.6 °F /  4.2 °C 38.3 °F /  3.5 °C 30.03 in /  1016.8 hPa NNW 4.0 mph /  6.4 km/h 5.0 mph /  8 km/h 95 % 0.00 in /  0 mm 9 W/m2
09:00 39.6 °F /  4.2 °C 38.3 °F /  3.5 °C 30.04 in /  1017.2 hPa NNW 3.0 mph /  4.8 km/h 12.0 mph /  19.3 km/h 95 % 0.00 in /  0 mm 11 W/m2
09:10 39.5 °F /  4.2 °C 38.2 °F /  3.4 °C 30.04 in /  1017.2 hPa NNW 7.0 mph /  11.3 km/h 12.0 mph /  19.3 km/h 95 % 0.00 in /  0 mm 14 W/m2
09:15 39.6 °F /  4.2 °C 38.3 °F /  3.5 °C 30.05 in /  1017.5 hPa NNW 5.0 mph /  8 km/h 12.0 mph /  19.3 km/h 95 % 0.00 in /  0 mm 14 W/m2
09:20 39.6 °F /  4.2 °C 38.3 °F /  3.5 °C 30.05 in /  1017.5 hPa NNW 3.0 mph /  4.8 km/h 12.0 mph /  19.3 km/h 95 % 0.00 in /  0 mm 11 W/m2
09:25 39.6 °F /  4.2 °C 38.3 °F /  3.5 °C 30.05 in /  1017.5 hPa NNW 3.0 mph /  4.8 km/h 12.0 mph /  19.3 km/h 95 % 0.00 in /  0 mm 11 W/m2
09:35 39.5 °F /  4.2 °C 38.2 °F /  3.4 °C 30.05 in /  1017.5 hPa North 5.0 mph /  8 km/h 12.0 mph /  19.3 km/h 95 % 0.00 in /  0 mm 14 W/m2
09:40 39.4 °F /  4.1 °C 38.1 °F /  3.4 °C 30.06 in /  1017.8 hPa NNW 6.0 mph /  9.7 km/h 6.0 mph /  9.7 km/h 95 % 0.00 in /  0 mm 12 W/m2
09:45 39.4 °F /  4.1 °C 37.8 °F /  3.2 °C 30.06 in /  1017.8 hPa NNE 5.0 mph /  8 km/h 8.0 mph /  12.9 km/h 94 % 0.00 in /  0 mm 12 W/m2
09:50 39.3 °F /  4.1 °C 37.7 °F /  3.2 °C 30.06 in /  1017.8 hPa North 5.0 mph /  8 km/h 12.0 mph /  19.3 km/h 94 % 0.00 in /  0 mm 12 W/m2
09:55 39.3 °F /  4.1 °C 37.7 °F /  3.2 °C 30.06 in /  1017.8 hPa North 5.0 mph /  8 km/h 12.0 mph /  19.3 km/h 94 % 0.00 in /  0 mm 12 W/m2
10:00 39.2 °F /  4 °C 37.6 °F /  3.1 °C 30.07 in /  1018.2 hPa NNE 6.0 mph /  9.7 km/h 6.0 mph /  9.7 km/h 94 % 0.00 in /  0 mm 16 W/m2
10:05 39.2 °F /  4 °C 37.6 °F /  3.1 °C 30.07 in /  1018.2 hPa NNE 7.0 mph /  11.3 km/h 7.0 mph /  11.3 km/h 94 % 0.04 in /  1.02 mm 18 W/m2
10:15 39.0 °F /  3.9 °C 37.4 °F /  3 °C 30.07 in /  1018.2 hPa NNE 6.0 mph /  9.7 km/h 12.0 mph /  19.3 km/h 94 % 0.04 in /  1.02 mm 21 W/m2
10:20 39.1 °F /  3.9 °C 37.5 °F /  3.1 °C 30.07 in /  1018.2 hPa NNW 5.0 mph /  8 km/h 12.0 mph /  19.3 km/h 94 % 0.04 in /  1.02 mm 18 W/m2
10:25 39.1 °F /  3.9 °C 37.5 °F /  3.1 °C 30.07 in /  1018.2 hPa NW 4.0 mph /  6.4 km/h 12.0 mph /  19.3 km/h 94 % 0.04 in /  1.02 mm 19 W/m2
10:30 39.2 °F /  4 °C 37.6 °F /  3.1 °C 30.08 in /  1018.5 hPa NNW 5.0 mph /  8 km/h 12.0 mph /  19.3 km/h 94 % 0.04 in /  1.02 mm 16 W/m2
10:35 39.2 °F /  4 °C 37.6 °F /  3.1 °C 30.08 in /  1018.5 hPa NNE 5.0 mph /  8 km/h 12.0 mph /  19.3 km/h 94 % 0.04 in /  1.02 mm 16 W/m2
10:40 39.3 °F /  4.1 °C 37.7 °F /  3.2 °C 30.08 in /  1018.5 hPa NNE 3.0 mph /  4.8 km/h 3.0 mph /  4.8 km/h 94 % 0.04 in /  1.02 mm 18 W/m2
10:45 39.3 °F /  4.1 °C 37.7 °F /  3.2 °C 30.08 in /  1018.5 hPa NNW 3.0 mph /  4.8 km/h 5.0 mph /  8 km/h 94 % 0.04 in /  1.02 mm 18 W/m2
10:50 39.4 °F /  4.1 °C 37.8 °F /  3.2 °C 30.08 in /  1018.5 hPa North 4.0 mph /  6.4 km/h 12.0 mph /  19.3 km/h 94 % 0.04 in /  1.02 mm 26 W/m2
11:00 39.4 °F /  4.1 °C 38.1 °F /  3.4 °C 30.08 in /  1018.5 hPa North 5.0 mph /  8 km/h 5.0 mph /  8 km/h 95 % 0.00 in /  0 mm 19 W/m2
11:05 39.5 °F /  4.2 °C 38.2 °F /  3.4 °C 30.08 in /  1018.5 hPa NNW 4.0 mph /  6.4 km/h 12.0 mph /  19.3 km/h 95 % 0.00 in /  0 mm 18 W/m2
11:10 39.5 °F /  4.2 °C 38.2 °F /  3.4 °C 30.08 in /  1018.5 hPa NNE 5.0 mph /  8 km/h 12.0 mph /  19.3 km/h 95 % 0.00 in /  0 mm 23 W/m2
11:15 39.5 °F /  4.2 °C 38.2 °F /  3.4 °C 30.08 in /  1018.5 hPa NNW 6.0 mph /  9.7 km/h 12.0 mph /  19.3 km/h 95 % 0.00 in /  0 mm 28 W/m2
11:25 39.3 °F /  4.1 °C 37.7 °F /  3.2 °C 30.08 in /  1018.5 hPa NNE 8.0 mph /  12.9 km/h 12.0 mph /  19.3 km/h 94 % 0.00 in /  0 mm 37 W/m2
11:35 39.3 °F /  4.1 °C 37.7 °F /  3.2 °C 30.08 in /  1018.5 hPa NNW 6.0 mph /  9.7 km/h 12.0 mph /  19.3 km/h 94 % 0.00 in /  0 mm 30 W/m2
11:40 39.2 °F /  4 °C 37.6 °F /  3.1 °C 30.08 in /  1018.5 hPa NE 7.0 mph /  11.3 km/h 12.0 mph /  19.3 km/h 94 % 0.00 in /  0 mm 23 W/m2
11:45 39.2 °F /  4 °C 37.6 °F /  3.1 °C 30.08 in /  1018.5 hPa North 7.0 mph /  11.3 km/h 12.0 mph /  19.3 km/h 94 % 0.00 in /  0 mm 25 W/m2
11:50 39.2 °F /  4 °C 37.6 °F /  3.1 °C 30.09 in /  1018.8 hPa NNW 6.0 mph /  9.7 km/h 6.0 mph /  9.7 km/h 94 % 0.00 in /  0 mm 26 W/m2
11:55 39.2 °F /  4 °C 37.6 °F /  3.1 °C 30.09 in /  1018.8 hPa NNE 4.0 mph /  6.4 km/h 11.0 mph /  17.7 km/h 94 % 0.00 in /  0 mm 32 W/m2
12:00 39.2 °F /  4 °C 37.6 °F /  3.1 °C 30.09 in /  1018.8 hPa NNW 6.0 mph /  9.7 km/h 12.0 mph /  19.3 km/h 94 % 0.00 in /  0 mm 37 W/m2
12:10 39.2 °F /  4 °C 37.6 °F /  3.1 °C 30.09 in /  1018.8 hPa North 6.0 mph /  9.7 km/h 12.0 mph /  19.3 km/h 94 % 0.00 in /  0 mm 44 W/m2
12:15 39.2 °F /  4 °C 37.6 °F /  3.1 °C 30.09 in /  1018.8 hPa NNE 7.0 mph /  11.3 km/h 12.0 mph /  19.3 km/h 94 % 0.00 in /  0 mm 47 W/m2
12:20 39.2 °F /  4 °C 37.6 °F /  3.1 °C 30.09 in /  1018.8 hPa NNE 6.0 mph /  9.7 km/h 12.0 mph /  19.3 km/h 94 % 0.00 in /  0 mm 32 W/m2
12:30 39.2 °F /  4 °C 37.6 °F /  3.1 °C 30.09 in /  1018.8 hPa NE 6.0 mph /  9.7 km/h 6.0 mph /  9.7 km/h 94 % 0.00 in /  0 mm 37 W/m2
12:35 39.2 °F /  4 °C 37.6 °F /  3.1 °C 30.09 in /  1018.8 hPa North 6.0 mph /  9.7 km/h 12.0 mph /  19.3 km/h 94 % 0.00 in /  0 mm 51 W/m2
12:40 39.2 °F /  4 °C 37.6 °F /  3.1 °C 30.09 in /  1018.8 hPa North 6.0 mph /  9.7 km/h 12.0 mph /  19.3 km/h 94 % 0.00 in /  0 mm 53 W/m2
12:45 39.2 °F /  4 °C 37.6 °F /  3.1 °C 30.09 in /  1018.8 hPa NNE 7.0 mph /  11.3 km/h 12.0 mph /  19.3 km/h 94 % 0.00 in /  0 mm 58 W/m2
12:50 39.2 °F /  4 °C 37.3 °F /  2.9 °C 30.09 in /  1018.8 hPa North 7.0 mph /  11.3 km/h 12.0 mph /  19.3 km/h 93 % 0.00 in /  0 mm 37 W/m2
12:55 39.2 °F /  4 °C 37.3 °F /  2.9 °C 30.09 in /  1018.8 hPa North 7.0 mph /  11.3 km/h 12.0 mph /  19.3 km/h 93 % 0.00 in /  0 mm 56 W/m2
13:00 39.1 °F /  3.9 °C 37.2 °F /  2.9 °C 30.10 in /  1019.2 hPa North 8.0 mph /  12.9 km/h 8.0 mph /  12.9 km/h 93 % 0.00 in /  0 mm 60 W/m2
13:05 39.1 °F /  3.9 °C 37.2 °F /  2.9 °C 30.09 in /  1018.8 hPa NNW 8.0 mph /  12.9 km/h 14.0 mph /  22.5 km/h 93 % 0.00 in /  0 mm 65 W/m2
13:15 39.2 °F /  4 °C 37.3 °F /  2.9 °C 30.10 in /  1019.2 hPa NNW 7.0 mph /  11.3 km/h 12.0 mph /  19.3 km/h 93 % 0.00 in /  0 mm 81 W/m2
13:20 39.3 °F /  4.1 °C 37.4 °F /  3 °C 30.10 in /  1019.2 hPa NNE 8.0 mph /  12.9 km/h 12.0 mph /  19.3 km/h 93 % 0.00 in /  0 mm 81 W/m2
13:25 39.3 °F /  4.1 °C 37.4 °F /  3 °C 30.10 in /  1019.2 hPa NNW 7.0 mph /  11.3 km/h 12.0 mph /  19.3 km/h 93 % 0.00 in /  0 mm 77 W/m2
13:30 39.3 °F /  4.1 °C 37.2 °F /  2.9 °C 30.10 in /  1019.2 hPa NNW 7.0 mph /  11.3 km/h 7.0 mph /  11.3 km/h 92 % 0.00 in /  0 mm 84 W/m2
13:35 39.4 °F /  4.1 °C 37.3 °F /  2.9 °C 30.10 in /  1019.2 hPa NNW 7.0 mph /  11.3 km/h 12.0 mph /  19.3 km/h 92 % 0.00 in /  0 mm 62 W/m2
13:40 39.3 °F /  4.1 °C 37.2 °F /  2.9 °C 30.10 in /  1019.2 hPa NNE 8.0 mph /  12.9 km/h 8.0 mph /  12.9 km/h 92 % 0.00 in /  0 mm 62 W/m2
13:50 39.2 °F /  4 °C 36.8 °F /  2.7 °C 30.11 in /  1019.5 hPa North 8.0 mph /  12.9 km/h 12.0 mph /  19.3 km/h 91 % 0.00 in /  0 mm 44 W/m2
13:55 39.2 °F /  4 °C 36.8 °F /  2.7 °C 30.11 in /  1019.5 hPa NW 7.0 mph /  11.3 km/h 12.0 mph /  19.3 km/h 91 % 0.00 in /  0 mm 49 W/m2
14:00 39.2 °F /  4 °C 36.8 °F /  2.7 °C 30.11 in /  1019.5 hPa NNE 7.0 mph /  11.3 km/h 7.0 mph /  11.3 km/h 91 % 0.00 in /  0 mm 40 W/m2
14:05 39.1 °F /  3.9 °C 36.7 °F /  2.6 °C 30.11 in /  1019.5 hPa North 7.0 mph /  11.3 km/h 12.0 mph /  19.3 km/h 91 % 0.00 in /  0 mm 33 W/m2
14:10 39.2 °F /  4 °C 36.8 °F /  2.7 °C 30.11 in /  1019.5 hPa NE 7.0 mph /  11.3 km/h 12.0 mph /  19.3 km/h 91 % 0.00 in /  0 mm 44 W/m2
14:15 39.0 °F /  3.9 °C 36.6 °F /  2.6 °C 30.11 in /  1019.5 hPa NNW 8.0 mph /  12.9 km/h 12.0 mph /  19.3 km/h 91 % 0.00 in /  0 mm 42 W/m2
14:25 39.0 °F /  3.9 °C 36.6 °F /  2.6 °C 30.11 in /  1019.5 hPa NW 5.0 mph /  8 km/h 12.0 mph /  19.3 km/h 91 % 0.00 in /  0 mm 46 W/m2
14:30 38.9 °F /  3.8 °C 36.2 °F /  2.3 °C 30.12 in /  1019.9 hPa North 7.0 mph /  11.3 km/h 14.0 mph /  22.5 km/h 90 % 0.00 in /  0 mm 46 W/m2
14:35 38.9 °F /  3.8 °C 36.2 °F /  2.3 °C 30.12 in /  1019.9 hPa NNW 9.0 mph /  14.5 km/h 14.0 mph /  22.5 km/h 90 % 0.00 in /  0 mm 49 W/m2
14:40 38.9 °F /  3.8 °C 35.9 °F /  2.2 °C 30.12 in /  1019.9 hPa NNW 9.0 mph /  14.5 km/h 12.0 mph /  19.3 km/h 89 % 0.00 in /  0 mm 60 W/m2
14:45 38.9 °F /  3.8 °C 35.9 °F /  2.2 °C 30.12 in /  1019.9 hPa North 7.0 mph /  11.3 km/h 12.0 mph /  19.3 km/h 89 % 0.00 in /  0 mm 40 W/m2
14:50 38.9 °F /  3.8 °C 35.9 °F /  2.2 °C 30.12 in /  1019.9 hPa North 8.0 mph /  12.9 km/h 12.0 mph /  19.3 km/h 89 % 0.00 in /  0 mm 46 W/m2
15:00 38.8 °F /  3.8 °C 35.6 °F /  2 °C 30.13 in /  1020.2 hPa NNW 7.0 mph /  11.3 km/h 12.0 mph /  19.3 km/h 88 % 0.00 in /  0 mm 39 W/m2
15:05 38.8 °F /  3.8 °C 35.6 °F /  2 °C 30.13 in /  1020.2 hPa NNW 7.0 mph /  11.3 km/h 12.0 mph /  19.3 km/h 88 % 0.00 in /  0 mm 30 W/m2
15:10 38.8 °F /  3.8 °C 35.6 °F /  2 °C 30.13 in /  1020.2 hPa NNW 6.0 mph /  9.7 km/h 6.0 mph /  9.7 km/h 88 % 0.00 in /  0 mm 23 W/m2
15:15 38.8 °F /  3.8 °C 35.6 °F /  2 °C 30.13 in /  1020.2 hPa NW 6.0 mph /  9.7 km/h 7.0 mph /  11.3 km/h 88 % 0.00 in /  0 mm 23 W/m2
15:20 38.7 °F /  3.7 °C 35.5 °F /  1.9 °C 30.13 in /  1020.2 hPa North 5.0 mph /  8 km/h 12.0 mph /  19.3 km/h 88 % 0.00 in /  0 mm 21 W/m2
15:25 38.7 °F /  3.7 °C 35.5 °F /  1.9 °C 30.13 in /  1020.2 hPa NNW 4.0 mph /  6.4 km/h 12.0 mph /  19.3 km/h 88 % 0.00 in /  0 mm 26 W/m2
15:30 38.7 °F /  3.7 °C 35.5 °F /  1.9 °C 30.13 in /  1020.2 hPa North 5.0 mph /  8 km/h 5.0 mph /  8 km/h 88 % 0.00 in /  0 mm 16 W/m2
15:40 38.5 °F /  3.6 °C 35.3 °F /  1.8 °C 30.14 in /  1020.5 hPa NW 6.0 mph /  9.7 km/h 6.0 mph /  9.7 km/h 88 % 0.00 in /  0 mm 12 W/m2
15:45 38.4 °F /  3.6 °C 35.2 °F /  1.8 °C 30.14 in /  1020.5 hPa NW 5.0 mph /  8 km/h 12.0 mph /  19.3 km/h 88 % 0.00 in /  0 mm 11 W/m2
15:50 38.2 °F /  3.4 °C 35.0 °F /  1.7 °C 30.14 in /  1020.5 hPa NNW 4.0 mph /  6.4 km/h 12.0 mph /  19.3 km/h 88 % 0.00 in /  0 mm 9 W/m2
15:55 38.1 °F /  3.4 °C 34.9 °F /  1.6 °C 30.14 in /  1020.5 hPa NNW 5.0 mph /  8 km/h 12.0 mph /  19.3 km/h 88 % 0.00 in /  0 mm 5 W/m2
16:00 38.0 °F /  3.3 °C 34.8 °F /  1.6 °C 30.15 in /  1020.9 hPa NNW 6.0 mph /  9.7 km/h 6.0 mph /  9.7 km/h 88 % 0.00 in /  0 mm 5 W/m2
16:10 37.8 °F /  3.2 °C 34.3 °F /  1.3 °C 30.15 in /  1020.9 hPa NNW 4.0 mph /  6.4 km/h 12.0 mph /  19.3 km/h 87 % 0.00 in /  0 mm 0 W/m2
16:15 37.7 °F /  3.2 °C 34.5 °F /  1.4 °C 30.15 in /  1020.9 hPa NNW 4.0 mph /  6.4 km/h 12.0 mph /  19.3 km/h 88 % 0.00 in /  0 mm 0 W/m2
16:20 37.5 °F /  3.1 °C 34.3 °F /  1.3 °C 30.15 in /  1020.9 hPa NW 3.0 mph /  4.8 km/h 3.0 mph /  4.8 km/h 88 % 0.00 in /  0 mm 0 W/m2
16:25 37.3 °F /  2.9 °C 34.1 °F /  1.2 °C 30.15 in /  1020.9 hPa NNW 2.0 mph /  3.2 km/h 12.0 mph /  19.3 km/h 88 % 0.00 in /  0 mm 0 W/m2
16:35 37.1 °F /  2.8 °C 34.2 °F /  1.2 °C 30.16 in /  1021.2 hPa NNW 3.0 mph /  4.8 km/h 5.0 mph /  8 km/h 89 % 0.00 in /  0 mm 0 W/m2
16:40 37.1 °F /  2.8 °C 34.2 °F /  1.2 °C 30.16 in /  1021.2 hPa WNW 2.0 mph /  3.2 km/h 12.0 mph /  19.3 km/h 89 % 0.00 in /  0 mm 0 W/m2
16:45 37.1 °F /  2.8 °C 34.2 °F /  1.2 °C 30.17 in /  1021.6 hPa NW 3.0 mph /  4.8 km/h 12.0 mph /  19.3 km/h 89 % 0.00 in /  0 mm 0 W/m2
16:50 37.1 °F /  2.8 °C 34.2 °F /  1.2 °C 30.17 in /  1021.6 hPa NW 3.0 mph /  4.8 km/h 3.0 mph /  4.8 km/h 89 % 0.00 in /  0 mm 0 W/m2
16:55 37.0 °F /  2.8 °C 34.1 °F /  1.2 °C 30.17 in /  1021.6 hPa NW 3.0 mph /  4.8 km/h 12.0 mph /  19.3 km/h 89 % 0.00 in /  0 mm 0 W/m2
17:00 36.9 °F /  2.7 °C 34.0 °F /  1.1 °C 30.17 in /  1021.6 hPa NW 2.0 mph /  3.2 km/h 12.0 mph /  19.3 km/h 89 % 0.00 in /  0 mm 0 W/m2
17:05 36.7 °F /  2.6 °C 33.8 °F /  1 °C 30.17 in /  1021.6 hPa NW 2.0 mph /  3.2 km/h 12.0 mph /  19.3 km/h 89 % 0.00 in /  0 mm 0 W/m2
17:10 36.5 °F /  2.5 °C 33.6 °F /  0.9 °C 30.17 in /  1021.6 hPa NNW 2.0 mph /  3.2 km/h 12.0 mph /  19.3 km/h 89 % 0.00 in /  0 mm 0 W/m2
17:20 36.3 °F /  2.4 °C 33.4 °F /  0.8 °C 30.18 in /  1021.9 hPa NNW 3.0 mph /  4.8 km/h 3.0 mph /  4.8 km/h 89 % 0.00 in /  0 mm 0 W/m2
17:25 36.1 °F /  2.3 °C 33.2 °F /  0.7 °C 30.18 in /  1021.9 hPa NW 3.0 mph /  4.8 km/h 12.0 mph /  19.3 km/h 89 % 0.00 in /  0 mm 0 W/m2
17:30 36.1 °F /  2.3 °C 33.2 °F /  0.7 °C 30.18 in /  1021.9 hPa NW 2.0 mph /  3.2 km/h 12.0 mph /  19.3 km/h 89 % 0.00 in /  0 mm 0 W/m2
17:35 36.0 °F /  2.2 °C 33.1 °F /  0.6 °C 30.18 in /  1021.9 hPa NW 3.0 mph /  4.8 km/h 12.0 mph /  19.3 km/h 89 % 0.00 in /  0 mm 0 W/m2
17:45 35.9 °F /  2.2 °C 33.3 °F /  0.7 °C 30.19 in /  1022.2 hPa NW 4.0 mph /  6.4 km/h 12.0 mph /  19.3 km/h 90 % 0.00 in /  0 mm 0 W/m2
17:55 35.7 °F /  2.1 °C 32.8 °F /  0.4 °C 30.19 in /  1022.2 hPa NNW 4.0 mph /  6.4 km/h 12.0 mph /  19.3 km/h 89 % 0.00 in /  0 mm 0 W/m2
18:00 35.7 °F /  2.1 °C 33.1 °F /  0.6 °C 30.20 in /  1022.6 hPa NNW 5.0 mph /  8 km/h 12.0 mph /  19.3 km/h 90 % 0.00 in /  0 mm 0 W/m2
18:05 35.8 °F /  2.1 °C 33.2 °F /  0.7 °C 30.20 in /  1022.6 hPa NNW 5.0 mph /  8 km/h 12.0 mph /  19.3 km/h 90 % 0.00 in /  0 mm 0 W/m2
18:10 36.0 °F /  2.2 °C 33.4 °F /  0.8 °C 30.20 in /  1022.6 hPa NNW 4.0 mph /  6.4 km/h 4.0 mph /  6.4 km/h 90 % 0.00 in /  0 mm 0 W/m2
18:20 36.6 °F /  2.6 °C 33.9 °F /  1.1 °C 30.21 in /  1022.9 hPa NNW 6.0 mph /  9.7 km/h 12.0 mph /  19.3 km/h 90 % 0.00 in /  0 mm 0 W/m2
18:30 37.0 °F /  2.8 °C 34.1 °F /  1.2 °C 30.21 in /  1022.9 hPa NNW 6.0 mph /  9.7 km/h 12.0 mph /  19.3 km/h 89 % 0.00 in /  0 mm 0 W/m2
18:35 37.1 °F /  2.8 °C 34.2 °F /  1.2 °C 30.21 in /  1022.9 hPa NNW 5.0 mph /  8 km/h 12.0 mph /  19.3 km/h 89 % 0.00 in /  0 mm 0 W/m2
18:40 37.2 °F /  2.9 °C 34.3 °F /  1.3 °C 30.21 in /  1022.9 hPa NNW 4.0 mph /  6.4 km/h 12.0 mph /  19.3 km/h 89 % 0.00 in /  0 mm 0 W/m2
18:45 37.4 °F /  3 °C 34.7 °F /  1.5 °C 30.21 in /  1022.9 hPa North 6.0 mph /  9.7 km/h 12.0 mph /  19.3 km/h 90 % 0.00 in /  0 mm 0 W/m2
18:50 37.5 °F /  3.1 °C 34.8 °F /  1.6 °C 30.22 in /  1023.2 hPa NNW 7.0 mph /  11.3 km/h 7.0 mph /  11.3 km/h 90 % 0.00 in /  0 mm 0 W/m2
18:55 37.5 °F /  3.1 °C 34.8 °F /  1.6 °C 30.22 in /  1023.2 hPa NW 7.0 mph /  11.3 km/h 9.0 mph /  14.5 km/h 90 % 0.00 in /  0 mm 0 W/m2
19:05 37.3 °F /  2.9 °C 34.6 °F /  1.4 °C 30.22 in /  1023.2 hPa NNW 7.0 mph /  11.3 km/h 12.0 mph /  19.3 km/h 90 % 0.00 in /  0 mm 0 W/m2
19:10 37.2 °F /  2.9 °C 34.5 °F /  1.4 °C 30.23 in /  1023.6 hPa NW 6.0 mph /  9.7 km/h 12.0 mph /  19.3 km/h 90 % 0.00 in /  0 mm 0 W/m2
19:15 37.0 °F /  2.8 °C 34.3 °F /  1.3 °C 30.23 in /  1023.6 hPa NNW 6.0 mph /  9.7 km/h 12.0 mph /  19.3 km/h 90 % 0.00 in /  0 mm 0 W/m2
19:20 36.9 °F /  2.7 °C 34.5 °F /  1.4 °C 30.23 in /  1023.6 hPa NNW 5.0 mph /  8 km/h 5.0 mph /  8 km/h 91 % 0.00 in /  0 mm 0 W/m2
19:25 36.8 °F /  2.7 °C 34.4 °F /  1.3 °C 30.23 in /  1023.6 hPa NNW 4.0 mph /  6.4 km/h 12.0 mph /  19.3 km/h 91 % 0.00 in /  0 mm 0 W/m2
19:30 36.6 °F /  2.6 °C 34.2 °F /  1.2 °C 30.23 in /  1023.6 hPa NNW 4.0 mph /  6.4 km/h 12.0 mph /  19.3 km/h 91 % 0.00 in /  0 mm 0 W/m2
19:40 36.5 °F /  2.5 °C 34.1 °F /  1.2 °C 30.23 in /  1023.6 hPa NW 5.0 mph /  8 km/h 12.0 mph /  19.3 km/h 91 % 0.00 in /  0 mm 0 W/m2
19:45 36.5 °F /  2.5 °C 34.1 °F /  1.2 °C 30.24 in /  1023.9 hPa North 5.0 mph /  8 km/h 12.0 mph /  19.3 km/h 91 % 0.00 in /  0 mm 0 W/m2
19:50 36.3 °F /  2.4 °C 33.9 °F /  1.1 °C 30.24 in /  1023.9 hPa NNW 3.0 mph /  4.8 km/h 3.0 mph /  4.8 km/h 91 % 0.00 in /  0 mm 0 W/m2
19:55 36.2 °F /  2.3 °C 34.1 °F /  1.2 °C 30.24 in /  1023.9 hPa NNW 3.0 mph /  4.8 km/h 5.0 mph /  8 km/h 92 % 0.00 in /  0 mm 0 W/m2
20:00 36.1 °F /  2.3 °C 34.0 °F /  1.1 °C 30.24 in /  1023.9 hPa NW 5.0 mph /  8 km/h 5.0 mph /  8 km/h 92 % 0.00 in /  0 mm 0 W/m2
20:05 36.0 °F /  2.2 °C 33.9 °F /  1.1 °C 30.24 in /  1023.9 hPa NNW 4.0 mph /  6.4 km/h 12.0 mph /  19.3 km/h 92 % 0.00 in /  0 mm 0 W/m2
20:15 35.9 °F /  2.2 °C 33.8 °F /  1 °C 30.25 in /  1024.3 hPa NW 4.0 mph /  6.4 km/h 12.0 mph /  19.3 km/h 92 % 0.00 in /  0 mm 0 W/m2
20:20 35.9 °F /  2.2 °C 34.1 °F /  1.2 °C 30.25 in /  1024.3 hPa NNW 4.0 mph /  6.4 km/h 12.0 mph /  19.3 km/h 93 % 0.00 in /  0 mm 0 W/m2
20:25 36.1 °F /  2.3 °C 34.3 °F /  1.3 °C 30.25 in /  1024.3 hPa NNW 5.0 mph /  8 km/h 12.0 mph /  19.3 km/h 93 % 0.00 in /  0 mm 0 W/m2
20:30 36.1 °F /  2.3 °C 34.0 °F /  1.1 °C 30.25 in /  1024.3 hPa NNW 6.0 mph /  9.7 km/h 6.0 mph /  9.7 km/h 92 % 0.00 in /  0 mm 0 W/m2
20:40 36.0 °F /  2.2 °C 33.9 °F /  1.1 °C 30.25 in /  1024.3 hPa NNW 4.0 mph /  6.4 km/h 12.0 mph /  19.3 km/h 92 % 0.00 in /  0 mm 0 W/m2
20:45 36.0 °F /  2.2 °C 33.9 °F /  1.1 °C 30.25 in /  1024.3 hPa NNW 5.0 mph /  8 km/h 12.0 mph /  19.3 km/h 92 % 0.00 in /  0 mm 0 W/m2
20:50 35.9 °F /  2.2 °C 33.8 °F /  1 °C 30.26 in /  1024.6 hPa NNW 4.0 mph /  6.4 km/h 12.0 mph /  19.3 km/h 92 % 0.00 in /  0 mm 0 W/m2
20:55 35.8 °F /  2.1 °C 33.7 °F /  0.9 °C 30.26 in /  1024.6 hPa NNW 4.0 mph /  6.4 km/h 12.0 mph /  19.3 km/h 92 % 0.00 in /  0 mm 0 W/m2
21:00 35.8 °F /  2.1 °C 33.7 °F /  0.9 °C 30.27 in /  1024.9 hPa NW 5.0 mph /  8 km/h 12.0 mph /  19.3 km/h 92 % 0.00 in /  0 mm 0 W/m2
21:05 35.8 °F /  2.1 °C 33.7 °F /  0.9 °C 30.27 in /  1024.9 hPa NNW 5.0 mph /  8 km/h 12.0 mph /  19.3 km/h 92 % 0.00 in /  0 mm 0 W/m2
21:15 35.6 °F /  2 °C 33.5 °F /  0.8 °C 30.27 in /  1024.9 hPa NW 5.0 mph /  8 km/h 12.0 mph /  19.3 km/h 92 % 0.00 in /  0 mm 0 W/m2
21:20 35.5 °F /  1.9 °C 33.4 °F /  0.8 °C 30.27 in /  1024.9 hPa WNW 5.0 mph /  8 km/h 5.0 mph /  8 km/h 92 % 0.00 in /  0 mm 0 W/m2
21:25 35.4 °F /  1.9 °C 33.3 °F /  0.7 °C 30.27 in /  1024.9 hPa NW 4.0 mph /  6.4 km/h 12.0 mph /  19.3 km/h 92 % 0.00 in /  0 mm 0 W/m2
21:30 35.2 °F /  1.8 °C 33.1 °F /  0.6 °C 30.28 in /  1025.3 hPa NW 4.0 mph /  6.4 km/h 12.0 mph /  19.3 km/h 92 % 0.00 in /  0 mm 0 W/m2
21:35 35.1 °F /  1.7 °C 33.0 °F /  0.6 °C 30.28 in /  1025.3 hPa NNW 4.0 mph /  6.4 km/h 12.0 mph /  19.3 km/h 92 % 0.00 in /  0 mm 0 W/m2
21:40 35.1 °F /  1.7 °C 33.3 °F /  0.7 °C 30.29 in /  1025.6 hPa NW 4.0 mph /  6.4 km/h 12.0 mph /  19.3 km/h 93 % 0.00 in /  0 mm 0 W/m2
21:50 35.4 °F /  1.9 °C 33.6 °F /  0.9 °C 30.29 in /  1025.6 hPa NNW 5.0 mph /  8 km/h 5.0 mph /  8 km/h 93 % 0.00 in /  0 mm 0 W/m2
21:55 35.5 °F /  1.9 °C 33.7 °F /  0.9 °C 30.29 in /  1025.6 hPa NW 4.0 mph /  6.4 km/h 12.0 mph /  19.3 km/h 93 % 0.00 in /  0 mm 0 W/m2
22:00 35.5 °F /  1.9 °C 33.7 °F /  0.9 °C 30.29 in /  1025.6 hPa NW 3.0 mph /  4.8 km/h 12.0 mph /  19.3 km/h 93 % 0.00 in /  0 mm 0 W/m2
22:05 35.4 °F /  1.9 °C 33.6 °F /  0.9 °C 30.30 in /  1026 hPa NW 4.0 mph /  6.4 km/h 12.0 mph /  19.3 km/h 93 % 0.00 in /  0 mm 0 W/m2
22:10 35.5 °F /  1.9 °C 33.7 °F /  0.9 °C 30.30 in /  1026 hPa NW 5.0 mph /  8 km/h 5.0 mph /  8 km/h 93 % 0.00 in /  0 mm 0 W/m2
22:20 36.0 °F /  2.2 °C 34.4 °F /  1.3 °C 30.30 in /  1026 hPa NNW 6.0 mph /  9.7 km/h 6.0 mph /  9.7 km/h 94 % 0.00 in /  0 mm 0 W/m2
22:25 36.1 °F /  2.3 °C 34.5 °F /  1.4 °C 30.30 in /  1026 hPa North 5.0 mph /  8 km/h 7.0 mph /  11.3 km/h 94 % 0.00 in /  0 mm 0 W/m2
22:30 36.2 °F /  2.3 °C 34.4 °F /  1.3 °C 30.30 in /  1026 hPa NNW 5.0 mph /  8 km/h 12.0 mph /  19.3 km/h 93 % 0.00 in /  0 mm 0 W/m2
22:35 36.3 °F /  2.4 °C 34.5 °F /  1.4 °C 30.30 in /  1026 hPa NNW 5.0 mph /  8 km/h 12.0 mph /  19.3 km/h 93 % 0.00 in /  0 mm 0 W/m2
22:40 36.3 °F /  2.4 °C 34.5 °F /  1.4 °C 30.30 in /  1026 hPa North 5.0 mph /  8 km/h 5.0 mph /  8 km/h 93 % 0.00 in /  0 mm 0 W/m2
22:50 36.4 °F /  2.4 °C 34.6 °F /  1.4 °C 30.31 in /  1026.3 hPa NW 7.0 mph /  11.3 km/h 7.0 mph /  11.3 km/h 93 % 0.00 in /  0 mm 0 W/m2
22:55 36.4 °F /  2.4 °C 34.6 °F /  1.4 °C 30.31 in /  1026.3 hPa NNW 7.0 mph /  11.3 km/h 12.0 mph /  19.3 km/h 93 % 0.00 in /  0 mm 0 W/m2
23:00 36.4 °F /  2.4 °C 34.6 °F /  1.4 °C 30.31 in /  1026.3 hPa NW 6.0 mph /  9.7 km/h 6.0 mph /  9.7 km/h 93 % 0.00 in /  0 mm 0 W/m2
23:05 36.4 °F /  2.4 °C 34.6 °F /  1.4 °C 30.31 in /  1026.3 hPa North 5.0 mph /  8 km/h 8.0 mph /  12.9 km/h 93 % 0.00 in /  0 mm 0 W/m2
23:10 36.5 °F /  2.5 °C 34.7 °F /  1.5 °C 30.32 in /  1026.6 hPa NNW 6.0 mph /  9.7 km/h 12.0 mph /  19.3 km/h 93 % 0.00 in /  0 mm 0 W/m2
23:15 36.6 °F /  2.6 °C 34.8 °F /  1.6 °C 30.32 in /  1026.6 hPa NNW 7.0 mph /  11.3 km/h 12.0 mph /  19.3 km/h 93 % 0.00 in /  0 mm 0 W/m2
23:25 36.6 °F /  2.6 °C 34.8 °F /  1.6 °C 30.32 in /  1026.6 hPa NNW 5.0 mph /  8 km/h 12.0 mph /  19.3 km/h 93 % 0.00 in /  0 mm 0 W/m2
23:30 36.7 °F /  2.6 °C 34.9 °F /  1.6 °C 30.32 in /  1026.6 hPa NNW 6.0 mph /  9.7 km/h 12.0 mph /  19.3 km/h 93 % 0.00 in /  0 mm 0 W/m2
23:35 36.7 °F /  2.6 °C 34.9 °F /  1.6 °C 30.32 in /  1026.6 hPa NW 6.0 mph /  9.7 km/h 12.0 mph /  19.3 km/h 93 % 0.00 in /  0 mm 0 W/m2
23:40 36.8 °F /  2.7 °C 35.0 °F /  1.7 °C 30.32 in /  1026.6 hPa NNW 6.0 mph /  9.7 km/h 12.0 mph /  19.3 km/h 93 % 0.00 in /  0 mm 0 W/m2
23:45 36.9 °F /  2.7 °C 35.1 °F /  1.7 °C 30.33 in /  1027 hPa NW 6.0 mph /  9.7 km/h 12.0 mph /  19.3 km/h 93 % 0.00 in /  0 mm 0 W/m2
23:55 37.0 °F /  2.8 °C 35.2 °F /  1.8 °C 30.33 in /  1027 hPa NNW 5.0 mph /  8 km/h 12.0 mph /  19.3 km/h 93 % 0.00 in /  0 mm 0 W/m2
Delerius-Weather
Compliments of Weather Underground - 2 mb

Data updates at regular intervals.